KALI/ALI METAR and TAF weather

Enter ICAO airport designator
Station Type Date Time Source
KALI METAR 2020/07/06 02:53 UTC NOAA

KALI 060253Z AUTO 12008KT 10SM CLR 28/24 A2980 RMK AO2 SLP089 T02780244 53013 $


Station Type Date Time Source
KALI Decoded METAR 2020/07/06 02:53 UTC NOAA

ALICE INTERNATIONAL AIRPORT, TX, United States (KALI) 27-44N 098-01W 53M
Jul 05, 2020 - 10:53 PM EDT / 2020.07.06 0253 UTC
Wind: from the ESE (120 degrees) at 9 MPH (8 KT):0
Visibility: 10 mile(s):0
Sky conditions: clear
Temperature: 82.0 F (27.8 C)
Dew Point: 75.9 F (24.4 C)
Relative Humidity: 81%
Pressure (altimeter): 29.8 in. Hg (1009 hPa)
Pressure tendency: 0.04 inches (1.3 hPa) higher than three hours ago
ob: KALI 060253Z AUTO 12008KT 10SM CLR 28/24 A2980 RMK AO2 SLP089 T02780244 53013
cycle: 3

Station Type Date Time Source
KALI TAF 2020/07/05 18:24 UTC NOAA

TAF KALI 051723Z 0518/0618 17012G20KT P6SM SKC
FM060100 14012KT P6SM SCT250
FM060600 17009KT P6SM SCT020
TEMPO 0610/0613 6SM BR BKN015
FM061500 18013G20KT P6SM OVC250

Example: see airport list